01:53
Airports
History
Links
Donate
Help keep this website running!
PayPal
Bitcoin
This page is community maintained. The information is intended for PC simulator navigation or reference.
Always use approved charts for navigation.
23N
Bayport AerodromeUpdated 21-May-2014
Bayport Aerodrome (23N)
Bayport, New York, United States (11705)
4
Lat/Lng:40° 45' 30.35" N / 73° 3' 13.4" W
40.758431 / -73.053722
Elevation:41'ft / 12mMSL
Declination:W013°
ID / ICAO:23N
FAA:23N
Runways:1
Longest:(18-36) 836.9m / 2,746ft Grass
Distance To
Airport ID:
Nearby VORs <50NM
Nearby NDBs
Nearby WeatherUpdated 08-17-17 00:56 GMT
Nearby weather at KISP, Long Island Mac Arthur located 3.5 nautical miles from 23N
Altimeter: 29.99
Visibility: 10.0 statute miles
Wind: 0 knots (000°)
Temp: 24°c 75°f
Humidity: 69.2%

METAR: KISP 170056Z 00000KT 10SM FEW180 24/18 A2999 RMK AO2 SLP153 T02390183

(Powered by phpweather)
Runway 18 / 36
Dimensions:836.9 x 45.7m 2746' x 150'ft
Surface:Grass
Runway 18 [A]Runway 36 [B]
Heading:179°MH  166°TH359°MH   346°TH
Lat:
Lng:
40° 45' 43.53"N
73° 3' 17.41"W
40° 45' 17.17"N
73° 3' 9.38"W
User Notes and Comments
Google Map
Nearby Airports
(C) Long Island Mac Arthur 3.5 NM
KISP (WX) NW 316°
(U) Brookhaven 10.7 NM
KHWV ENE 65°
(U) Spadaro 16.7 NM
1N2 ENE 73°
(R) Calverton Executive Airpark 17.4 NM
3C8 NE 51°
(C) Republic 18.9 NM
KFRG (WX) W 263°
(R) Talmage Fld 22.4 NM
03NY NE 51°
(C) Francis S Gabreski 22.8 NM
KFOK (WX) ENE 75°
VFR Chart
Flight Planning at SkyVector.com